createdAt,value
2019-02-08T00:00:22.531Z,6.50
2019-02-08T00:02:50.078Z,6.60
2019-02-08T00:05:17.750Z,6.60
2019-02-08T00:07:45.313Z,6.60
2019-02-08T00:10:13.788Z,6.60
2019-02-08T00:12:41.272Z,6.50
2019-02-08T00:15:09.236Z,6.60
2019-02-08T00:17:36.832Z,6.70
2019-02-08T00:20:05.276Z,6.60
2019-02-08T00:22:32.763Z,6.60
2019-02-08T00:25:00.477Z,6.60
2019-02-08T00:27:28.058Z,6.60
2019-02-08T00:29:55.582Z,6.60
2019-02-08T00:32:23.050Z,6.60
2019-02-08T00:34:51.214Z,6.60
2019-02-08T00:37:18.676Z,6.60
2019-02-08T00:39:46.147Z,6.70
2019-02-08T00:42:14.866Z,6.70
2019-02-08T00:44:42.391Z,6.80
2019-02-08T00:47:10.020Z,6.80
2019-02-08T00:49:37.549Z,6.80
2019-02-08T00:52:05.058Z,6.80
2019-02-08T00:54:32.830Z,6.70
2019-02-08T00:57:00.306Z,6.70
2019-02-08T00:59:27.830Z,6.70
2019-02-08T01:01:55.360Z,6.70
2019-02-08T01:04:22.902Z,6.70
2019-02-08T01:06:50.397Z,6.70
2019-02-08T01:09:17.908Z,6.70
2019-02-08T01:11:45.485Z,6.70
2019-02-08T01:14:12.991Z,6.70
2019-02-08T01:16:40.456Z,6.70
2019-02-08T01:19:08.335Z,6.70
2019-02-08T01:21:35.865Z,6.80
2019-02-08T01:24:03.719Z,6.80
2019-02-08T01:26:31.165Z,6.80
2019-02-08T01:28:58.665Z,6.80
2019-02-08T01:31:26.105Z,6.80
2019-02-08T01:33:53.680Z,6.80
2019-02-08T01:36:21.216Z,6.80
2019-02-08T01:38:48.743Z,6.80
2019-02-08T01:41:16.311Z,6.80
2019-02-08T01:43:43.826Z,6.80
2019-02-08T01:46:11.295Z,6.80
2019-02-08T01:48:38.853Z,6.80
2019-02-08T01:51:06.307Z,6.90
2019-02-08T01:53:33.839Z,6.90
2019-02-08T01:56:01.326Z,6.90
2019-02-08T01:58:28.813Z,6.90
2019-02-08T02:00:56.337Z,6.90
2019-02-08T02:03:23.779Z,7.00
2019-02-08T02:05:51.259Z,7.00
2019-02-08T02:08:18.803Z,7.00
2019-02-08T02:10:46.319Z,7.00
2019-02-08T02:13:13.829Z,7.00
2019-02-08T02:15:41.561Z,7.00
2019-02-08T02:18:09.911Z,7.00
2019-02-08T02:20:38.561Z,7.00
2019-02-08T02:23:07.305Z,7.00
2019-02-08T02:25:34.823Z,7.10
2019-02-08T02:28:02.295Z,7.10
2019-02-08T02:30:31.622Z,7.10
2019-02-08T02:32:59.107Z,7.10
2019-02-08T02:35:26.833Z,7.10
2019-02-08T02:37:54.450Z,7.10
2019-02-08T02:40:22.150Z,7.20
2019-02-08T02:42:49.885Z,7.10
2019-02-08T02:45:31.335Z,7.10
2019-02-08T02:47:58.854Z,7.20
2019-02-08T02:50:26.453Z,7.20
2019-02-08T02:52:53.977Z,7.20
2019-02-08T02:55:22.736Z,7.20
2019-02-08T02:57:50.634Z,7.20
2019-02-08T03:00:31.283Z,7.20
2019-02-08T03:02:59.238Z,7.20
2019-02-08T03:05:26.987Z,7.20
2019-02-08T03:07:54.406Z,7.20
2019-02-08T03:10:21.964Z,7.20
2019-02-08T03:12:49.670Z,7.20
2019-02-08T03:15:18.301Z,7.20
2019-02-08T03:17:45.818Z,7.10
2019-02-08T03:20:15.351Z,7.10
2019-02-08T03:22:42.848Z,7.10
2019-02-08T03:25:11.727Z,7.10
2019-02-08T03:27:39.271Z,7.10
2019-02-08T03:30:09.423Z,7.10
2019-02-08T03:32:37.273Z,7.10
2019-02-08T03:35:06.987Z,7.10
2019-02-08T03:37:34.518Z,7.10
2019-02-08T03:40:02.150Z,7.20
2019-02-08T03:42:30.215Z,7.10
2019-02-08T03:44:57.750Z,7.10
2019-02-08T03:47:25.271Z,7.10
2019-02-08T03:49:52.681Z,7.10
2019-02-08T03:52:20.189Z,7.10
2019-02-08T03:54:47.752Z,7.10
2019-02-08T03:57:15.293Z,7.10
2019-02-08T03:59:42.772Z,7.10
2019-02-08T04:02:10.315Z,7.10
2019-02-08T04:04:38.084Z,7.00
2019-02-08T04:07:05.855Z,7.00
2019-02-08T04:09:33.286Z,7.00
2019-02-08T04:12:00.780Z,7.00
2019-02-08T04:14:28.262Z,7.00
2019-02-08T04:16:55.684Z,7.00
2019-02-08T04:19:23.143Z,6.90
2019-02-08T04:21:50.663Z,6.90
2019-02-08T04:24:18.201Z,6.90
2019-02-08T04:26:45.708Z,6.90
2019-02-08T04:29:13.240Z,6.90
2019-02-08T04:31:42.402Z,6.90
2019-02-08T04:34:10.026Z,6.90
2019-02-08T04:36:37.471Z,6.90
2019-02-08T04:39:06.988Z,6.90
2019-02-08T04:41:34.530Z,6.80
2019-02-08T04:44:02.008Z,6.80
2019-02-08T04:46:29.438Z,6.90
2019-02-08T04:48:56.856Z,6.90
2019-02-08T04:51:25.697Z,6.90
2019-02-08T04:53:53.246Z,6.90
2019-02-08T04:56:20.745Z,6.80
2019-02-08T04:58:48.246Z,6.80
2019-02-08T05:01:15.743Z,6.90
2019-02-08T05:03:43.222Z,6.90
2019-02-08T05:06:10.724Z,6.90
2019-02-08T05:08:38.197Z,6.90
2019-02-08T05:11:05.728Z,6.90
2019-02-08T05:13:33.220Z,6.90
2019-02-08T05:16:00.676Z,6.90
2019-02-08T05:18:28.155Z,6.90
2019-02-08T05:20:55.617Z,6.90
2019-02-08T05:23:23.252Z,6.90
2019-02-08T05:25:50.757Z,7.00
2019-02-08T05:28:18.214Z,7.00
2019-02-08T05:30:45.690Z,7.00
2019-02-08T05:33:13.177Z,7.00
2019-02-08T05:35:40.663Z,7.00
2019-02-08T05:38:08.160Z,7.00
2019-02-08T05:40:35.731Z,7.10
2019-02-08T05:43:03.768Z,7.10
2019-02-08T05:45:31.286Z,7.10
2019-02-08T05:47:58.716Z,7.10
2019-02-08T05:50:26.548Z,7.10
2019-02-08T05:52:54.249Z,7.10
2019-02-08T05:55:23.910Z,7.10
2019-02-08T05:57:51.533Z,7.10
2019-02-08T06:00:23.039Z,7.20
2019-02-08T06:02:50.583Z,7.10
2019-02-08T06:05:18.180Z,7.20
2019-02-08T06:07:45.648Z,7.20
2019-02-08T06:10:13.542Z,7.20
2019-02-08T06:12:41.019Z,7.20
2019-02-08T06:15:11.003Z,7.20
2019-02-08T06:17:38.431Z,7.20
2019-02-08T06:20:07.303Z,7.20
2019-02-08T06:22:34.801Z,7.20
2019-02-08T06:25:04.128Z,7.20
2019-02-08T06:27:31.952Z,7.10
2019-02-08T06:29:59.408Z,7.10
2019-02-08T06:32:26.925Z,7.10
2019-02-08T06:34:54.336Z,7.10
2019-02-08T06:37:21.825Z,7.10
2019-02-08T06:39:49.317Z,7.10
2019-02-08T06:42:16.805Z,7.10
2019-02-08T06:44:44.403Z,7.10
2019-02-08T06:47:11.890Z,7.20
2019-02-08T06:49:39.342Z,7.20
2019-02-08T06:52:06.711Z,7.20
2019-02-08T06:54:34.169Z,7.20
2019-02-08T06:57:27.331Z,7.20
2019-02-08T07:00:09.591Z,7.20
2019-02-08T07:02:56.601Z,7.20
2019-02-08T07:05:52.401Z,7.20
2019-02-08T07:08:48.171Z,7.20
2019-02-08T07:11:21.756Z,7.20
2019-02-08T07:14:11.668Z,7.20
2019-02-08T07:16:58.635Z,7.20
2019-02-08T07:19:53.771Z,7.20
2019-02-08T07:22:43.525Z,7.20
2019-02-08T07:25:33.280Z,7.20
2019-02-08T07:28:15.763Z,7.30
2019-02-08T07:30:58.767Z,7.30
2019-02-08T07:33:44.414Z,7.30
2019-02-08T07:36:32.220Z,7.30
2019-02-08T07:39:17.830Z,7.40
2019-02-08T07:42:09.061Z,7.40
2019-02-08T07:44:45.753Z,7.40
2019-02-08T07:47:45.011Z,7.40
2019-02-08T07:50:22.902Z,7.40
2019-02-08T07:53:10.621Z,7.50
2019-02-08T07:55:52.989Z,7.50
2019-02-08T07:58:40.007Z,7.50
2019-02-08T08:01:25.722Z,7.50
2019-02-08T08:04:11.178Z,7.50
2019-02-08T08:06:57.774Z,7.60
2019-02-08T08:09:40.474Z,7.60
2019-02-08T08:12:30.106Z,7.60
2019-02-08T08:15:13.868Z,7.60
2019-02-08T08:17:57.862Z,7.60
2019-02-08T08:20:42.891Z,7.60
2019-02-08T08:23:28.635Z,7.70
2019-02-08T08:26:19.384Z,7.70
2019-02-08T08:29:04.896Z,7.70
2019-02-08T08:31:53.985Z,7.70
2019-02-08T08:34:42.818Z,7.70
2019-02-08T08:37:41.638Z,7.70
2019-02-08T08:40:52.147Z,7.80
2019-02-08T08:43:49.492Z,7.80
2019-02-08T08:46:52.547Z,7.80
2019-02-08T08:50:10.772Z,7.80
2019-02-08T08:53:22.863Z,7.90
2019-02-08T08:56:30.734Z,7.90
2019-02-08T08:59:55.157Z,7.90
2019-02-08T09:02:51.712Z,7.90
2019-02-08T09:05:35.154Z,8.00
2019-02-08T09:08:52.239Z,8.00
2019-02-08T09:11:49.688Z,8.00
2019-02-08T09:14:55.030Z,8.10
2019-02-08T09:17:57.553Z,8.10
2019-02-08T09:21:17.720Z,8.10
2019-02-08T09:24:16.786Z,8.10
2019-02-08T09:27:25.713Z,8.20
2019-02-08T09:30:05.997Z,8.20
2019-02-08T09:33:10.910Z,8.30
2019-02-08T09:36:23.354Z,8.30
2019-02-08T09:39:29.396Z,8.30
2019-02-08T09:42:32.590Z,8.30
2019-02-08T09:45:36.117Z,8.40
2019-02-08T09:48:36.278Z,8.40
2019-02-08T09:51:38.026Z,8.50
2019-02-08T09:54:40.467Z,8.50
2019-02-08T09:57:48.520Z,8.60
2019-02-08T10:00:57.708Z,8.60
2019-02-08T10:04:21.163Z,8.60
2019-02-08T10:07:20.209Z,8.60
2019-02-08T10:10:27.014Z,8.60
2019-02-08T10:13:34.856Z,8.70
2019-02-08T10:16:42.159Z,8.70
2019-02-08T10:19:56.177Z,8.80
2019-02-08T10:22:56.078Z,8.80
2019-02-08T10:25:51.904Z,8.90
2019-02-08T10:29:00.695Z,8.90
2019-02-08T10:31:56.788Z,9.00
2019-02-08T10:35:06.238Z,9.00
2019-02-08T10:38:17.206Z,9.00
2019-02-08T10:41:30.469Z,9.10
2019-02-08T10:44:50.628Z,9.10
2019-02-08T10:48:01.085Z,9.20
2019-02-08T10:51:31.521Z,9.30
2019-02-08T10:54:35.103Z,9.30
2019-02-08T10:57:45.628Z,9.30
2019-02-08T11:00:56.351Z,9.30
2019-02-08T11:03:53.551Z,9.30
2019-02-08T11:07:03.035Z,9.30
2019-02-08T11:10:06.413Z,9.30
2019-02-08T11:13:14.237Z,9.30
2019-02-08T11:16:12.209Z,9.30
2019-02-08T11:19:17.334Z,9.40
2019-02-08T11:21:45.867Z,9.40
2019-02-08T11:24:13.830Z,9.40
2019-02-08T11:26:41.285Z,9.50
2019-02-08T11:29:08.777Z,9.50
2019-02-08T11:31:36.229Z,9.50
2019-02-08T11:34:05.065Z,9.50
2019-02-08T11:36:32.629Z,9.50
2019-02-08T11:38:59.987Z,9.50
2019-02-08T11:41:27.541Z,9.50
2019-02-08T11:43:54.973Z,9.50
2019-02-08T11:46:22.325Z,9.50
2019-02-08T11:48:49.727Z,9.50
2019-02-08T11:51:17.184Z,9.50
2019-02-08T11:53:44.623Z,9.50
2019-02-08T11:56:12.299Z,9.50
2019-02-08T11:58:39.755Z,9.50
2019-02-08T12:01:07.292Z,9.50
2019-02-08T12:03:34.677Z,9.50
2019-02-08T12:06:02.169Z,9.50
2019-02-08T12:08:29.615Z,9.50
2019-02-08T12:10:56.953Z,9.60
2019-02-08T12:13:24.451Z,9.60
2019-02-08T12:15:51.936Z,9.60
2019-02-08T12:18:19.436Z,9.50
2019-02-08T12:20:46.899Z,9.60
2019-02-08T12:23:14.278Z,9.60
2019-02-08T12:25:41.776Z,9.70
2019-02-08T12:28:09.168Z,9.70
2019-02-08T12:30:37.417Z,9.70
2019-02-08T12:33:05.114Z,9.80
2019-02-08T12:35:32.597Z,9.80
2019-02-08T12:38:00.107Z,9.80
2019-02-08T12:40:27.559Z,9.80
2019-02-08T12:42:55.000Z,9.80
2019-02-08T12:45:22.456Z,9.90
2019-02-08T12:47:49.824Z,9.90
2019-02-08T12:50:19.620Z,9.90
2019-02-08T12:52:47.100Z,9.90
2019-02-08T12:55:20.772Z,9.90
2019-02-08T12:57:48.332Z,9.90
2019-02-08T13:00:17.716Z,9.90
2019-02-08T13:02:46.350Z,9.90
2019-02-08T13:05:14.454Z,9.80
2019-02-08T13:07:41.998Z,9.80
2019-02-08T13:10:11.136Z,9.80
2019-02-08T13:12:38.780Z,9.80
2019-02-08T13:15:07.892Z,9.80
2019-02-08T13:17:35.352Z,9.80
2019-02-08T13:20:03.818Z,9.80
2019-02-08T13:22:33.033Z,9.80
2019-02-08T13:25:01.304Z,9.80
2019-02-08T13:27:28.803Z,9.80
2019-02-08T13:29:57.332Z,9.80
2019-02-08T13:32:24.735Z,9.80
2019-02-08T13:34:52.226Z,9.80
2019-02-08T13:37:19.667Z,9.80
2019-02-08T13:39:47.479Z,9.80
2019-02-08T13:42:14.960Z,9.90
2019-02-08T13:44:42.410Z,9.90
2019-02-08T13:47:10.969Z,9.90
2019-02-08T13:49:38.485Z,9.90
2019-02-08T13:52:05.896Z,9.90
2019-02-08T13:54:33.387Z,9.90
2019-02-08T13:57:00.985Z,9.90
2019-02-08T13:59:28.410Z,9.90
2019-02-08T14:01:55.885Z,9.90
2019-02-08T14:04:23.342Z,10.00
2019-02-08T14:06:50.789Z,10.00
2019-02-08T14:09:18.183Z,9.90
2019-02-08T14:11:45.571Z,10.00
2019-02-08T14:14:13.028Z,10.00
2019-02-08T14:16:40.587Z,10.00
2019-02-08T14:19:08.142Z,10.00
2019-02-08T14:21:35.617Z,10.00
2019-02-08T14:24:03.285Z,10.00
2019-02-08T14:26:31.963Z,10.00
2019-02-08T14:28:59.477Z,9.90
2019-02-08T14:31:26.969Z,9.90
2019-02-08T14:33:54.449Z,9.90
2019-02-08T14:36:21.947Z,9.90
2019-02-08T14:38:49.386Z,9.90
2019-02-08T14:41:16.892Z,9.90
2019-02-08T14:43:44.397Z,9.80
2019-02-08T14:46:14.629Z,9.90
2019-02-08T14:48:42.318Z,9.90
2019-02-08T14:51:10.395Z,9.90
2019-02-08T14:53:38.065Z,9.90
2019-02-08T14:56:05.718Z,9.90
2019-02-08T14:58:33.295Z,9.90
2019-02-08T15:01:00.987Z,9.90
2019-02-08T15:03:28.481Z,9.90
2019-02-08T15:05:56.008Z,9.90
2019-02-08T15:08:23.474Z,9.90
2019-02-08T15:10:51.262Z,9.90
2019-02-08T15:13:19.040Z,9.90
2019-02-08T15:15:46.492Z,9.90
2019-02-08T15:18:14.063Z,10.00
2019-02-08T15:20:41.631Z,10.00
2019-02-08T15:23:09.091Z,10.00
2019-02-08T15:25:36.612Z,9.90
2019-02-08T15:28:04.337Z,9.90
2019-02-08T15:30:32.207Z,9.90
2019-02-08T15:32:59.703Z,9.90
2019-02-08T15:35:27.871Z,9.90
2019-02-08T15:37:55.437Z,9.90
2019-02-08T15:40:26.671Z,9.90
2019-02-08T15:42:54.327Z,9.90
2019-02-08T15:45:21.729Z,9.90
2019-02-08T15:47:50.301Z,9.90
2019-02-08T15:50:18.036Z,9.90
2019-02-08T15:52:45.505Z,9.80
2019-02-08T15:55:16.669Z,9.80
2019-02-08T15:57:44.177Z,9.80
2019-02-08T16:00:14.391Z,9.80
2019-02-08T16:02:42.191Z,9.80
2019-02-08T16:05:11.042Z,9.80
2019-02-08T16:07:38.553Z,9.80
2019-02-08T16:10:06.267Z,9.80
2019-02-08T16:12:33.816Z,9.80
2019-02-08T16:15:01.378Z,9.80
2019-02-08T16:17:28.865Z,9.70
2019-02-08T16:19:56.419Z,9.70
2019-02-08T16:22:23.941Z,9.80
2019-02-08T16:24:51.557Z,9.70
2019-02-08T16:27:19.258Z,9.70
2019-02-08T16:29:46.844Z,9.70
2019-02-08T16:32:14.386Z,9.70
2019-02-08T16:34:41.886Z,9.70
2019-02-08T16:37:09.354Z,9.70
2019-02-08T16:39:36.753Z,9.60
2019-02-08T16:42:04.250Z,9.60
2019-02-08T16:44:32.068Z,9.70
2019-02-08T16:46:59.619Z,9.70
2019-02-08T16:49:27.547Z,9.70
2019-02-08T16:51:55.082Z,9.60
2019-02-08T16:54:22.563Z,9.60
2019-02-08T16:56:50.086Z,9.60
2019-02-08T16:59:17.576Z,9.60
2019-02-08T17:01:45.092Z,9.60
2019-02-08T17:04:12.595Z,9.60
2019-02-08T17:06:40.101Z,9.60
2019-02-08T17:09:11.183Z,9.60
2019-02-08T17:11:44.703Z,9.60
2019-02-08T17:14:13.171Z,9.60
2019-02-08T17:16:40.872Z,9.60
2019-02-08T17:19:08.975Z,9.60
2019-02-08T17:21:36.572Z,9.60
2019-02-08T17:24:04.164Z,9.60
2019-02-08T17:26:31.676Z,9.60
2019-02-08T17:28:59.151Z,9.60
2019-02-08T17:31:26.778Z,9.60
2019-02-08T17:33:54.278Z,9.70
2019-02-08T17:36:21.904Z,9.70
2019-02-08T17:38:49.404Z,9.70
2019-02-08T17:41:16.954Z,9.70
2019-02-08T17:43:44.495Z,9.70
2019-02-08T17:46:12.121Z,9.70
2019-02-08T17:48:39.576Z,9.70
2019-02-08T17:51:07.076Z,9.80
2019-02-08T17:53:34.674Z,9.80
2019-02-08T17:56:02.222Z,9.80
2019-02-08T17:58:29.850Z,9.80
2019-02-08T18:00:58.638Z,9.90
2019-02-08T18:03:27.267Z,9.90
2019-02-08T18:05:54.712Z,9.90
2019-02-08T18:08:22.252Z,9.90
2019-02-08T18:10:49.608Z,9.80
2019-02-08T18:13:17.464Z,9.80
2019-02-08T18:15:45.198Z,9.80
2019-02-08T18:18:17.883Z,9.70
2019-02-08T18:20:47.186Z,9.70
2019-02-08T18:23:14.686Z,9.70
2019-02-08T18:25:42.272Z,9.60
2019-02-08T18:28:11.411Z,9.60
2019-02-08T18:30:38.870Z,9.60
2019-02-08T18:33:06.318Z,9.50
2019-02-08T18:35:33.881Z,9.50
2019-02-08T18:38:01.329Z,9.50
2019-02-08T18:40:28.797Z,9.40
2019-02-08T18:42:56.326Z,9.40
2019-02-08T18:45:25.230Z,9.30
2019-02-08T18:47:52.738Z,9.30
2019-02-08T18:50:22.295Z,9.30
2019-02-08T18:52:49.787Z,9.20
2019-02-08T18:55:17.382Z,9.10
2019-02-08T18:57:44.869Z,9.10
2019-02-08T19:00:15.959Z,9.10
2019-02-08T19:02:44.067Z,9.10
2019-02-08T19:05:12.197Z,9.00
2019-02-08T19:07:39.669Z,9.00
2019-02-08T19:10:09.791Z,9.00
2019-02-08T19:12:37.229Z,9.10
2019-02-08T19:15:05.829Z,9.10
2019-02-08T19:17:33.352Z,9.00
2019-02-08T19:20:00.824Z,9.00
2019-02-08T19:22:28.305Z,9.00
2019-02-08T19:24:55.721Z,9.00
2019-02-08T19:27:23.214Z,9.00
2019-02-08T19:29:50.611Z,9.00
2019-02-08T19:32:17.965Z,9.00
2019-02-08T19:34:45.857Z,9.00
2019-02-08T19:37:13.365Z,9.00
2019-02-08T19:39:40.809Z,9.00
2019-02-08T19:50:15.339Z,9.00
2019-02-08T19:52:42.975Z,9.00
2019-02-08T19:55:10.678Z,8.90
2019-02-08T19:57:38.196Z,8.90
2019-02-08T20:00:10.140Z,8.90
2019-02-08T20:02:37.529Z,8.90
2019-02-08T20:05:09.194Z,9.00
2019-02-08T20:07:36.725Z,8.90
2019-02-08T20:10:07.075Z,8.90
2019-02-08T20:12:34.613Z,8.80
2019-02-08T20:15:02.070Z,8.80
2019-02-08T20:17:29.614Z,8.80
2019-02-08T20:19:57.103Z,8.80
2019-02-08T20:22:27.307Z,8.80
2019-02-08T20:24:54.829Z,8.80
2019-02-08T20:27:22.311Z,8.80
2019-02-08T20:29:49.893Z,8.80
2019-02-08T20:32:17.432Z,8.80
2019-02-08T20:34:47.048Z,8.80
2019-02-08T20:37:14.397Z,8.70
2019-02-08T20:39:41.885Z,8.70
2019-02-08T20:42:09.415Z,8.70
2019-02-08T20:44:37.038Z,8.70
2019-02-08T20:47:04.529Z,8.70
2019-02-08T20:49:32.095Z,8.60
2019-02-08T20:51:59.672Z,8.70
2019-02-08T20:54:30.080Z,8.60
2019-02-08T20:56:58.951Z,8.60
2019-02-08T20:59:26.807Z,8.60
2019-02-08T21:01:54.330Z,8.60
2019-02-08T21:04:23.970Z,8.60
2019-02-08T21:06:51.491Z,8.60
2019-02-08T21:09:18.963Z,8.60
2019-02-08T21:11:46.509Z,8.60
2019-02-08T21:14:14.041Z,8.50
2019-02-08T21:16:42.293Z,8.50
2019-02-08T21:19:09.775Z,8.60
2019-02-08T21:21:37.271Z,8.50
2019-02-08T21:24:04.779Z,8.50
2019-02-08T21:26:32.219Z,8.60
2019-02-08T21:28:59.835Z,8.50
2019-02-08T21:31:27.301Z,8.50
2019-02-08T21:33:55.844Z,8.50
2019-02-08T21:36:23.388Z,8.50
2019-02-08T21:38:50.885Z,8.50
2019-02-08T21:41:18.436Z,8.50
2019-02-08T21:43:46.032Z,8.50
2019-02-08T21:46:13.477Z,8.50
2019-02-08T21:48:40.831Z,8.50
2019-02-08T21:51:08.900Z,8.40
2019-02-08T21:53:36.404Z,8.40
2019-02-08T21:56:04.228Z,8.50
2019-02-08T21:58:31.792Z,8.50
2019-02-08T22:00:59.282Z,8.50
2019-02-08T22:03:26.722Z,8.50
2019-02-08T22:05:57.794Z,8.50
2019-02-08T22:08:26.280Z,8.50
2019-02-08T22:10:53.834Z,8.50
2019-02-08T22:13:21.713Z,8.50
2019-02-08T22:15:49.390Z,8.60
2019-02-08T22:18:16.920Z,8.60
2019-02-08T22:20:44.362Z,8.50
2019-02-08T22:23:11.788Z,8.50
2019-02-08T22:25:39.364Z,8.50
2019-02-08T22:28:06.819Z,8.50
2019-02-08T22:30:34.479Z,8.50
2019-02-08T22:33:01.963Z,8.50
2019-02-08T22:35:29.530Z,8.50
2019-02-08T22:37:57.061Z,8.50
2019-02-08T22:40:24.646Z,8.60
2019-02-08T22:42:52.312Z,8.60
2019-02-08T22:45:30.604Z,8.60
2019-02-08T22:47:58.098Z,8.70
2019-02-08T22:50:25.785Z,8.70
2019-02-08T22:52:53.248Z,8.60
2019-02-08T22:55:21.545Z,8.70
2019-02-08T22:57:49.132Z,8.70
2019-02-08T23:01:04.156Z,8.70
2019-02-08T23:03:32.588Z,8.70
2019-02-08T23:06:00.085Z,8.70
2019-02-08T23:08:27.481Z,8.70
2019-02-08T23:10:55.602Z,8.70
2019-02-08T23:13:23.226Z,8.80
2019-02-08T23:15:50.718Z,8.70
2019-02-08T23:18:18.108Z,8.70
2019-02-08T23:20:45.490Z,8.70
2019-02-08T23:23:12.902Z,8.70
2019-02-08T23:25:40.285Z,8.70
2019-02-08T23:28:07.925Z,8.60
2019-02-08T23:30:35.752Z,8.60
2019-02-08T23:33:03.496Z,8.60
2019-02-08T23:35:31.015Z,8.60
2019-02-08T23:37:58.535Z,8.60
2019-02-08T23:40:28.740Z,8.50
2019-02-08T23:42:56.210Z,8.50
2019-02-08T23:45:25.367Z,8.50
2019-02-08T23:47:53.057Z,8.40
2019-02-08T23:50:20.452Z,8.40
2019-02-08T23:52:47.959Z,8.40
2019-02-08T23:55:16.541Z,8.40
2019-02-08T23:57:43.937Z,8.40
